Alderpoint, California
Current Conditions -  °F | °C
As of 5:30 AM on Wednesday 22 Oct 2014 (Local Time) from KFOT Reporting Station
Overcast Overcast  
Wind Chill: 14°   Ceiling: 6000
Heat Index: 14°   Visibility: 10mi
Dew Point:   Wind: 13mph
Humidity: 72%   Direction: 110°ESE
Pressure: 30.02"   Gusts: NA
Location:  40.18°N, 123.61°W
Report Text: KFOT 221230Z AUTO 11011KT 10SM SCT048 BKN060 OVC065 14/09 A3002 RMK AO1
Loading
Personal Weather Stations






























Interactive Weather Map
Tropical Storm Tracking
New forecast layout! Learn more

10-Day Weather Forecast

Advertisements
Track Severe Weather on mobile